sensor_id;sensor_type;location;lat;lon;timestamp;P1;durP1;ratioP1;P2;durP2;ratioP2
7475;SDS011;3779;49.216;8.650;2023-07-31T01:11:57;4.32;;;1.80;;
7475;SDS011;3779;49.216;8.650;2023-07-31T01:14:51;2.58;;;1.63;;
7475;SDS011;3779;49.216;8.650;2023-07-31T01:32:32;4.00;;;1.92;;
7475;SDS011;3779;49.216;8.650;2023-07-31T01:53:23;2.90;;;1.73;;
7475;SDS011;3779;49.216;8.650;2023-07-31T03:03:30;3.50;;;1.88;;
7475;SDS011;3779;49.216;8.650;2023-07-31T03:15:43;2.95;;;1.80;;
7475;SDS011;3779;49.216;8.650;2023-07-31T03:18:29;4.82;;;1.80;;
7475;SDS011;3779;49.216;8.650;2023-07-31T03:24:13;6.70;;;1.90;;
7475;SDS011;3779;49.216;8.650;2023-07-31T03:26:59;4.05;;;1.70;;
7475;SDS011;3779;49.216;8.650;2023-07-31T03:29:46;7.03;;;1.92;;
7475;SDS011;3779;49.216;8.650;2023-07-31T03:32:32;3.25;;;1.70;;
7475;SDS011;3779;49.216;8.650;2023-07-31T03:35:17;3.20;;;1.80;;
7475;SDS011;3779;49.216;8.650;2023-07-31T03:38:03;2.85;;;2.20;;
7475;SDS011;3779;49.216;8.650;2023-07-31T03:40:49;5.65;;;2.25;;
7475;SDS011;3779;49.216;8.650;2023-07-31T03:43:35;3.40;;;1.70;;
7475;SDS011;3779;49.216;8.650;2023-07-31T03:46:21;4.82;;;1.77;;
7475;SDS011;3779;49.216;8.650;2023-07-31T03:49:08;2.72;;;1.70;;
7475;SDS011;3779;49.216;8.650;2023-07-31T03:51:54;4.82;;;1.90;;
7475;SDS011;3779;49.216;8.650;2023-07-31T03:54:40;2.50;;;1.77;;
7475;SDS011;3779;49.216;8.650;2023-07-31T03:57:25;3.55;;;1.98;;
7475;SDS011;3779;49.216;8.650;2023-07-31T04:00:12;3.55;;;1.88;;
7475;SDS011;3779;49.216;8.650;2023-07-31T04:02:58;3.45;;;1.85;;
7475;SDS011;3779;49.216;8.650;2023-07-31T04:05:44;5.30;;;2.20;;
7475;SDS011;3779;49.216;8.650;2023-07-31T04:08:30;3.55;;;1.83;;
7475;SDS011;3779;49.216;8.650;2023-07-31T04:11:16;5.68;;;2.05;;
7475;SDS011;3779;49.216;8.650;2023-07-31T04:14:01;2.22;;;1.70;;
7475;SDS011;3779;49.216;8.650;2023-07-31T04:16:47;3.08;;;1.65;;
7475;SDS011;3779;49.216;8.650;2023-07-31T04:19:34;3.53;;;1.80;;
7475;SDS011;3779;49.216;8.650;2023-07-31T04:22:19;3.70;;;1.73;;
7475;SDS011;3779;49.216;8.650;2023-07-31T04:25:05;5.28;;;1.75;;
7475;SDS011;3779;49.216;8.650;2023-07-31T04:27:51;4.40;;;1.90;;
7475;SDS011;3779;49.216;8.650;2023-07-31T04:30:37;3.50;;;1.77;;
7475;SDS011;3779;49.216;8.650;2023-07-31T04:33:24;5.95;;;2.10;;
7475;SDS011;3779;49.216;8.650;2023-07-31T04:36:10;4.07;;;1.67;;
7475;SDS011;3779;49.216;8.650;2023-07-31T06:11:40;2.97;;;1.58;;
7475;SDS011;3779;49.216;8.650;2023-07-31T06:14:27;3.40;;;1.90;;
7475;SDS011;3779;49.216;8.650;2023-07-31T06:17:12;4.30;;;2.00;;
7475;SDS011;3779;49.216;8.650;2023-07-31T06:19:58;4.05;;;2.13;;
7475;SDS011;3779;49.216;8.650;2023-07-31T06:22:44;2.90;;;1.85;;
7475;SDS011;3779;49.216;8.650;2023-07-31T06:25:30;5.40;;;2.15;;
7475;SDS011;3779;49.216;8.650;2023-07-31T08:10:48;2.42;;;1.60;;
7475;SDS011;3779;49.216;8.650;2023-07-31T08:13:34;5.95;;;2.40;;
7475;SDS011;3779;49.216;8.650;2023-07-31T08:16:21;4.07;;;1.85;;
7475;SDS011;3779;49.216;8.650;2023-07-31T08:19:07;2.17;;;1.90;;
7475;SDS011;3779;49.216;8.650;2023-07-31T08:21:53;3.70;;;1.60;;
7475;SDS011;3779;49.216;8.650;2023-07-31T08:24:39;4.30;;;1.80;;
7475;SDS011;3779;49.216;8.650;2023-07-31T08:27:25;4.15;;;1.92;;
7475;SDS011;3779;49.216;8.650;2023-07-31T08:30:11;3.60;;;2.22;;
7475;SDS011;3779;49.216;8.650;2023-07-31T08:32:57;2.47;;;2.13;;
7475;SDS011;3779;49.216;8.650;2023-07-31T08:35:43;5.07;;;2.20;;
7475;SDS011;3779;49.216;8.650;2023-07-31T08:38:29;5.35;;;2.83;;
7475;SDS011;3779;49.216;8.650;2023-07-31T08:41:15;5.50;;;1.98;;
7475;SDS011;3779;49.216;8.650;2023-07-31T08:44:04;4.30;;;2.15;;
7475;SDS011;3779;49.216;8.650;2023-07-31T08:46:50;7.20;;;2.25;;
7475;SDS011;3779;49.216;8.650;2023-07-31T08:49:37;2.22;;;1.70;;
7475;SDS011;3779;49.216;8.650;2023-07-31T08:52:25;2.95;;;1.92;;
7475;SDS011;3779;49.216;8.650;2023-07-31T08:55:11;4.45;;;1.90;;
7475;SDS011;3779;49.216;8.650;2023-07-31T08:57:57;7.20;;;2.40;;
7475;SDS011;3779;49.216;8.650;2023-07-31T09:00:44;4.32;;;2.10;;
7475;SDS011;3779;49.216;8.650;2023-07-31T09:03:33;5.97;;;2.40;;
7475;SDS011;3779;49.216;8.650;2023-07-31T09:06:21;4.47;;;1.80;;
7475;SDS011;3779;49.216;8.650;2023-07-31T09:09:12;3.45;;;2.25;;
7475;SDS011;3779;49.216;8.650;2023-07-31T09:11:58;4.78;;;2.17;;
7475;SDS011;3779;49.216;8.650;2023-07-31T09:14:45;6.15;;;2.58;;
7475;SDS011;3779;49.216;8.650;2023-07-31T10:36:20;3.85;;;2.70;;
7475;SDS011;3779;49.216;8.650;2023-07-31T10:39:06;4.65;;;2.50;;
7475;SDS011;3779;49.216;8.650;2023-07-31T10:42:29;3.45;;;2.55;;
7475;SDS011;3779;49.216;8.650;2023-07-31T10:48:24;3.28;;;2.20;;
7475;SDS011;3779;49.216;8.650;2023-07-31T10:51:10;3.38;;;2.22;;
7475;SDS011;3779;49.216;8.650;2023-07-31T10:54:11;2.80;;;1.92;;
7475;SDS011;3779;49.216;8.650;2023-07-31T10:57:01;5.13;;;2.60;;
7475;SDS011;3779;49.216;8.650;2023-07-31T10:59:48;5.55;;;2.40;;
7475;SDS011;3779;49.216;8.650;2023-07-31T11:02:35;4.32;;;2.10;;
7475;SDS011;3779;49.216;8.650;2023-07-31T11:05:21;5.60;;;2.35;;
7475;SDS011;3779;49.216;8.650;2023-07-31T11:11:36;6.10;;;2.38;;
7475;SDS011;3779;49.216;8.650;2023-07-31T11:14:25;3.63;;;2.33;;
7475;SDS011;3779;49.216;8.650;2023-07-31T11:17:11;5.47;;;3.10;;
7475;SDS011;3779;49.216;8.650;2023-07-31T11:19:57;6.93;;;2.70;;
7475;SDS011;3779;49.216;8.650;2023-07-31T11:22:42;4.50;;;2.15;;
7475;SDS011;3779;49.216;8.650;2023-07-31T11:25:29;3.45;;;2.17;;
7475;SDS011;3779;49.216;8.650;2023-07-31T11:28:17;4.03;;;2.60;;
7475;SDS011;3779;49.216;8.650;2023-07-31T11:31:05;4.32;;;2.25;;
7475;SDS011;3779;49.216;8.650;2023-07-31T11:34:04;6.80;;;2.53;;
7475;SDS011;3779;49.216;8.650;2023-07-31T11:43:04;2.42;;;1.92;;
7475;SDS011;3779;49.216;8.650;2023-07-31T12:17:43;4.25;;;2.10;;
7475;SDS011;3779;49.216;8.650;2023-07-31T12:20:34;3.55;;;2.53;;
7475;SDS011;3779;49.216;8.650;2023-07-31T12:23:25;4.45;;;2.53;;
7475;SDS011;3779;49.216;8.650;2023-07-31T12:26:15;4.30;;;2.08;;
7475;SDS011;3779;49.216;8.650;2023-07-31T12:29:02;2.67;;;1.98;;
7475;SDS011;3779;49.216;8.650;2023-07-31T12:31:52;5.07;;;2.40;;
7475;SDS011;3779;49.216;8.650;2023-07-31T12:34:42;3.60;;;2.25;;
7475;SDS011;3779;49.216;8.650;2023-07-31T12:37:30;6.90;;;2.63;;
7475;SDS011;3779;49.216;8.650;2023-07-31T12:40:19;5.75;;;2.45;;
7475;SDS011;3779;49.216;8.650;2023-07-31T12:43:06;2.55;;;2.03;;
7475;SDS011;3779;49.216;8.650;2023-07-31T12:45:56;2.80;;;1.90;;
7475;SDS011;3779;49.216;8.650;2023-07-31T12:48:42;3.60;;;2.30;;
7475;SDS011;3779;49.216;8.650;2023-07-31T12:51:28;4.40;;;2.03;;
7475;SDS011;3779;49.216;8.650;2023-07-31T13:03:34;4.88;;;2.22;;
7475;SDS011;3779;49.216;8.650;2023-07-31T13:09:21;3.25;;;2.38;;
7475;SDS011;3779;49.216;8.650;2023-07-31T13:24:12;3.97;;;2.20;;
7475;SDS011;3779;49.216;8.650;2023-07-31T13:26:58;3.65;;;2.13;;
7475;SDS011;3779;49.216;8.650;2023-07-31T13:53:28;4.55;;;2.45;;
7475;SDS011;3779;49.216;8.650;2023-07-31T13:56:19;3.88;;;2.47;;
7475;SDS011;3779;49.216;8.650;2023-07-31T13:59:07;1.83;;;1.73;;
7475;SDS011;3779;49.216;8.650;2023-07-31T14:01:54;3.45;;;2.05;;
7475;SDS011;3779;49.216;8.650;2023-07-31T14:04:43;3.85;;;2.50;;
7475;SDS011;3779;49.216;8.650;2023-07-31T14:07:29;4.15;;;2.20;;
7475;SDS011;3779;49.216;8.650;2023-07-31T14:10:17;4.65;;;2.50;;
7475;SDS011;3779;49.216;8.650;2023-07-31T14:13:08;3.33;;;2.25;;
7475;SDS011;3779;49.216;8.650;2023-07-31T14:15:55;5.80;;;2.50;;
7475;SDS011;3779;49.216;8.650;2023-07-31T14:18:45;5.15;;;2.63;;
7475;SDS011;3779;49.216;8.650;2023-07-31T14:21:32;4.25;;;2.00;;
7475;SDS011;3779;49.216;8.650;2023-07-31T14:24:21;4.30;;;2.67;;
7475;SDS011;3779;49.216;8.650;2023-07-31T14:27:27;3.13;;;2.35;;
7475;SDS011;3779;49.216;8.650;2023-07-31T14:30:16;4.35;;;2.33;;
7475;SDS011;3779;49.216;8.650;2023-07-31T14:33:09;2.28;;;1.92;;
7475;SDS011;3779;49.216;8.650;2023-07-31T14:35:55;6.78;;;2.65;;
7475;SDS011;3779;49.216;8.650;2023-07-31T14:38:47;2.42;;;2.03;;
7475;SDS011;3779;49.216;8.650;2023-07-31T14:41:36;7.80;;;2.60;;
7475;SDS011;3779;49.216;8.650;2023-07-31T14:44:24;4.65;;;2.75;;
7475;SDS011;3779;49.216;8.650;2023-07-31T14:47:18;3.50;;;2.20;;
7475;SDS011;3779;49.216;8.650;2023-07-31T14:50:04;2.25;;;1.80;;
7475;SDS011;3779;49.216;8.650;2023-07-31T14:52:50;3.80;;;2.20;;
7475;SDS011;3779;49.216;8.650;2023-07-31T14:55:40;3.75;;;2.30;;
7475;SDS011;3779;49.216;8.650;2023-07-31T14:58:27;3.17;;;2.10;;
7475;SDS011;3779;49.216;8.650;2023-07-31T15:01:24;2.72;;;2.10;;
7475;SDS011;3779;49.216;8.650;2023-07-31T15:04:13;3.08;;;2.30;;
7475;SDS011;3779;49.216;8.650;2023-07-31T15:06:59;2.63;;;2.10;;
7475;SDS011;3779;49.216;8.650;2023-07-31T15:09:45;5.63;;;2.40;;
7475;SDS011;3779;49.216;8.650;2023-07-31T15:12:31;4.40;;;2.30;;
7475;SDS011;3779;49.216;8.650;2023-07-31T15:15:17;4.05;;;2.40;;
7475;SDS011;3779;49.216;8.650;2023-07-31T16:26:04;4.43;;;2.60;;
7475;SDS011;3779;49.216;8.650;2023-07-31T16:28:50;4.40;;;2.50;;
7475;SDS011;3779;49.216;8.650;2023-07-31T16:31:36;2.88;;;2.22;;
7475;SDS011;3779;49.216;8.650;2023-07-31T16:34:23;5.38;;;2.95;;
7475;SDS011;3779;49.216;8.650;2023-07-31T16:37:10;4.15;;;2.63;;
7475;SDS011;3779;49.216;8.650;2023-07-31T16:39:55;4.05;;;2.28;;
7475;SDS011;3779;49.216;8.650;2023-07-31T16:42:41;3.67;;;2.05;;
7475;SDS011;3779;49.216;8.650;2023-07-31T16:45:27;4.22;;;2.20;;
7475;SDS011;3779;49.216;8.650;2023-07-31T16:48:13;4.55;;;2.20;;
7475;SDS011;3779;49.216;8.650;2023-07-31T16:51:00;3.08;;;2.28;;
7475;SDS011;3779;49.216;8.650;2023-07-31T16:53:48;3.80;;;2.33;;
7475;SDS011;3779;49.216;8.650;2023-07-31T16:56:34;2.25;;;1.77;;
7475;SDS011;3779;49.216;8.650;2023-07-31T16:59:20;4.22;;;2.80;;
7475;SDS011;3779;49.216;8.650;2023-07-31T17:02:06;4.90;;;2.42;;
7475;SDS011;3779;49.216;8.650;2023-07-31T17:04:52;6.15;;;3.03;;
7475;SDS011;3779;49.216;8.650;2023-07-31T17:07:38;4.63;;;2.33;;
7475;SDS011;3779;49.216;8.650;2023-07-31T17:10:24;4.40;;;2.70;;
7475;SDS011;3779;49.216;8.650;2023-07-31T17:13:10;5.25;;;2.53;;
7475;SDS011;3779;49.216;8.650;2023-07-31T17:15:57;4.63;;;2.50;;
7475;SDS011;3779;49.216;8.650;2023-07-31T17:18:42;3.70;;;2.45;;
7475;SDS011;3779;49.216;8.650;2023-07-31T17:21:32;4.07;;;2.65;;
7475;SDS011;3779;49.216;8.650;2023-07-31T17:27:21;7.55;;;2.70;;
7475;SDS011;3779;49.216;8.650;2023-07-31T17:30:09;5.13;;;2.90;;
7475;SDS011;3779;49.216;8.650;2023-07-31T17:32:56;5.38;;;2.92;;
7475;SDS011;3779;49.216;8.650;2023-07-31T17:35:48;3.90;;;3.00;;
7475;SDS011;3779;49.216;8.650;2023-07-31T17:38:33;5.15;;;3.03;;
7475;SDS011;3779;49.216;8.650;2023-07-31T17:41:25;4.93;;;2.88;;
7475;SDS011;3779;49.216;8.650;2023-07-31T17:44:12;5.05;;;3.40;;
7475;SDS011;3779;49.216;8.650;2023-07-31T17:46:58;4.53;;;2.92;;
7475;SDS011;3779;49.216;8.650;2023-07-31T17:49:44;4.80;;;3.10;;
7475;SDS011;3779;49.216;8.650;2023-07-31T17:52:30;4.85;;;2.80;;
7475;SDS011;3779;49.216;8.650;2023-07-31T17:55:19;6.70;;;3.75;;
7475;SDS011;3779;49.216;8.650;2023-07-31T17:58:05;5.60;;;3.42;;
7475;SDS011;3779;49.216;8.650;2023-07-31T18:00:52;6.22;;;3.22;;
7475;SDS011;3779;49.216;8.650;2023-07-31T18:03:39;6.88;;;3.30;;
7475;SDS011;3779;49.216;8.650;2023-07-31T18:06:25;4.75;;;3.10;;
7475;SDS011;3779;49.216;8.650;2023-07-31T18:09:11;4.45;;;3.10;;
7475;SDS011;3779;49.216;8.650;2023-07-31T18:11:56;6.43;;;3.60;;
7475;SDS011;3779;49.216;8.650;2023-07-31T18:14:42;4.65;;;3.22;;
7475;SDS011;3779;49.216;8.650;2023-07-31T18:17:28;6.68;;;3.70;;
7475;SDS011;3779;49.216;8.650;2023-07-31T18:20:14;5.00;;;3.13;;
7475;SDS011;3779;49.216;8.650;2023-07-31T18:23:00;4.00;;;3.15;;
7475;SDS011;3779;49.216;8.650;2023-07-31T18:25:46;6.50;;;3.08;;
7475;SDS011;3779;49.216;8.650;2023-07-31T18:28:33;5.25;;;3.28;;
7475;SDS011;3779;49.216;8.650;2023-07-31T18:31:18;5.63;;;3.22;;
7475;SDS011;3779;49.216;8.650;2023-07-31T18:34:04;4.47;;;2.80;;
7475;SDS011;3779;49.216;8.650;2023-07-31T19:31:07;5.10;;;3.10;;
7475;SDS011;3779;49.216;8.650;2023-07-31T20:30:35;4.28;;;3.33;;
7475;SDS011;3779;49.216;8.650;2023-07-31T20:36:33;5.07;;;2.90;;
7475;SDS011;3779;49.216;8.650;2023-07-31T20:42:31;5.30;;;3.20;;
7475;SDS011;3779;49.216;8.650;2023-07-31T20:45:17;6.43;;;3.25;;
7475;SDS011;3779;49.216;8.650;2023-07-31T20:48:03;4.38;;;2.80;;
7475;SDS011;3779;49.216;8.650;2023-07-31T20:50:49;6.60;;;3.55;;
7475;SDS011;3779;49.216;8.650;2023-07-31T20:53:35;6.22;;;2.95;;
7475;SDS011;3779;49.216;8.650;2023-07-31T22:39:56;3.83;;;2.97;;
7475;SDS011;3779;49.216;8.650;2023-07-31T22:42:42;3.20;;;2.60;;
7475;SDS011;3779;49.216;8.650;2023-07-31T22:45:28;3.95;;;3.10;;
7475;SDS011;3779;49.216;8.650;2023-07-31T22:48:14;3.40;;;3.03;;
7475;SDS011;3779;49.216;8.650;2023-07-31T22:51:00;3.42;;;2.88;;
7475;SDS011;3779;49.216;8.650;2023-07-31T22:53:45;4.13;;;3.08;;
7475;SDS011;3779;49.216;8.650;2023-07-31T22:56:31;3.97;;;2.80;;
7475;SDS011;3779;49.216;8.650;2023-07-31T22:59:17;3.63;;;2.97;;
7475;SDS011;3779;49.216;8.650;2023-07-31T23:02:03;4.00;;;3.00;;
7475;SDS011;3779;49.216;8.650;2023-07-31T23:04:53;4.15;;;3.13;;
7475;SDS011;3779;49.216;8.650;2023-07-31T23:07:39;4.10;;;3.10;;
7475;SDS011;3779;49.216;8.650;2023-07-31T23:10:25;3.42;;;3.13;;
7475;SDS011;3779;49.216;8.650;2023-07-31T23:13:14;4.28;;;2.92;;
7475;SDS011;3779;49.216;8.650;2023-07-31T23:16:00;4.07;;;3.13;;
7475;SDS011;3779;49.216;8.650;2023-07-31T23:18:46;3.92;;;2.75;;
7475;SDS011;3779;49.216;8.650;2023-07-31T23:21:32;4.80;;;2.90;;
7475;SDS011;3779;49.216;8.650;2023-07-31T23:24:18;5.78;;;3.20;;
7475;SDS011;3779;49.216;8.650;2023-07-31T23:27:04;4.55;;;3.20;;
7475;SDS011;3779;49.216;8.650;2023-07-31T23:29:50;4.53;;;2.90;;
7475;SDS011;3779;49.216;8.650;2023-07-31T23:32:35;4.15;;;2.90;;
7475;SDS011;3779;49.216;8.650;2023-07-31T23:35:21;3.03;;;2.70;;
7475;SDS011;3779;49.216;8.650;2023-07-31T23:38:07;4.50;;;2.80;;
7475;SDS011;3779;49.216;8.650;2023-07-31T23:40:53;3.25;;;2.67;;
7475;SDS011;3779;49.216;8.650;2023-07-31T23:43:39;4.22;;;2.88;;
7475;SDS011;3779;49.216;8.650;2023-07-31T23:46:25;4.55;;;3.22;;
7475;SDS011;3779;49.216;8.650;2023-07-31T23:49:14;6.97;;;3.28;;
7475;SDS011;3779;49.216;8.650;2023-07-31T23:52:01;3.97;;;3.22;;
7475;SDS011;3779;49.216;8.650;2023-07-31T23:54:47;4.32;;;3.17;;
7475;SDS011;3779;49.216;8.650;2023-07-31T23:57:33;4.78;;;3.28;;
